עמוד ראשי
METAR-TAF:

METAR-TAF

שדות תעופה :

פוארטו מונט, צ'ילה

קו רוחב: 41-25S, קו אורך: 073-05W, גובה: 85מטר

תצפית מזג אוויר נוכחית

הדו"ח נערך לפני 36דקות, בשעה 17:00 UTC
רוח רגועה
טמפרטורת 8 צלסיוס
לחות 76%
לחץ 1025 hPa
ראות 10 קילומטר או יותר
ללא עננים שבסיסם נמוך מ 5000 רגל או קומולונימבוס

METAR: SCTE 241700Z 00000KT CAVOK 08/04 Q1025 NOSIG

זמן: 13:36 (17:36 UTC)

תחזית

הדו"ח נערך לפני 6 שעות ו 46דקות, בשעה 10:50 UTC
תחזית בתוקף מ 24 ב 12 UTC עד 25 ב 12 UTC
רוח 2קשר עם כיוונים משתנים
ראות 10 קילומטר או יותר
ללא עננים שבסיסם נמוך מ 5000 רגל או קומולונימבוס
זמנית מ -
24 ב 12 UTC עד 24 ב 15 UTC
ראות: 0800מטר
קרעי ערפל
יעשה מ
25 ב 04 UTC עד 25 ב 06 UTC
ראות: 2000מטר
עננים פזורים בגובה 1000רגל
אד
זמנית מ -
25 ב 07 UTC עד 25 ב 12 UTC
ראות: 0500מטר
בגובה 200רגל
ערפל,

TAF: SCTE 241050Z 2412/2512 VRB02KT CAVOK TN01/2413Z TX09/2419Z TEMPO 2412/2415 0800 BCFG BECMG 2504/2506 2000 BR SCT010 TEMPO 2507/2512 0500 FG VV002

תצפיות ותחזיות מזג אוויר לגבי יותר מ- 4,000 שדות תעופה ברחבי העולם. דוחות METAR ו- TAF.

התחנות הזמינות מסומנות בנקודות צהובות ואדומות על גבי המפה.

העבר את העכבר לנקודה הצבעונית על מנת לראות את שם התחנה.

לאחר מכן, לחץ כדי לראות את תוכן ואת תחזיות מזג האוויר.

כדי לשנות את המפה: לחץ על הכפתורים הירוקים עם הפלוס השחור כדי להתקרב; על הכפתור הירוק עם המקף כדי להתרחק; או בחיצים הירוקים למפות סמוכות.


METAR-TAF: